sensor_id;sensor_type;location;lat;lon;timestamp;P1;durP1;ratioP1;P2;durP2;ratioP2
19951;SDS011;10137;49.406;19.484;2023-12-20T00:00:22;3.47;;;2.20;;
19951;SDS011;10137;49.406;19.484;2023-12-20T00:02:49;4.33;;;2.33;;
19951;SDS011;10137;49.406;19.484;2023-12-20T00:05:16;3.57;;;2.47;;
19951;SDS011;10137;49.406;19.484;2023-12-20T00:07:43;3.40;;;2.40;;
19951;SDS011;10137;49.406;19.484;2023-12-20T00:10:11;2.60;;;1.93;;
19951;SDS011;10137;49.406;19.484;2023-12-20T00:12:38;3.07;;;2.00;;
19951;SDS011;10137;49.406;19.484;2023-12-20T00:15:06;4.67;;;2.77;;
19951;SDS011;10137;49.406;19.484;2023-12-20T00:17:33;4.10;;;2.70;;
19951;SDS011;10137;49.406;19.484;2023-12-20T00:20:00;5.57;;;2.97;;
19951;SDS011;10137;49.406;19.484;2023-12-20T00:22:27;3.37;;;2.13;;
19951;SDS011;10137;49.406;19.484;2023-12-20T00:24:54;3.70;;;2.60;;
19951;SDS011;10137;49.406;19.484;2023-12-20T00:27:22;2.90;;;2.03;;
19951;SDS011;10137;49.406;19.484;2023-12-20T00:29:49;3.00;;;2.00;;
19951;SDS011;10137;49.406;19.484;2023-12-20T00:32:16;2.97;;;2.10;;
19951;SDS011;10137;49.406;19.484;2023-12-20T00:34:43;3.67;;;2.27;;
19951;SDS011;10137;49.406;19.484;2023-12-20T00:37:10;8.07;;;2.50;;
19951;SDS011;10137;49.406;19.484;2023-12-20T00:39:37;13.20;;;3.30;;
19951;SDS011;10137;49.406;19.484;2023-12-20T00:42:04;6.87;;;6.17;;
19951;SDS011;10137;49.406;19.484;2023-12-20T00:44:32;4.93;;;3.37;;
19951;SDS011;10137;49.406;19.484;2023-12-20T00:46:59;4.90;;;3.30;;
19951;SDS011;10137;49.406;19.484;2023-12-20T00:49:26;3.20;;;2.50;;
19951;SDS011;10137;49.406;19.484;2023-12-20T00:51:53;4.40;;;3.47;;
19951;SDS011;10137;49.406;19.484;2023-12-20T00:54:20;3.90;;;2.60;;
19951;SDS011;10137;49.406;19.484;2023-12-20T00:56:47;4.33;;;2.80;;
19951;SDS011;10137;49.406;19.484;2023-12-20T00:59:14;3.63;;;2.40;;
19951;SDS011;10137;49.406;19.484;2023-12-20T01:01:42;3.63;;;2.53;;
19951;SDS011;10137;49.406;19.484;2023-12-20T01:04:09;4.47;;;2.90;;
19951;SDS011;10137;49.406;19.484;2023-12-20T01:06:36;4.83;;;2.70;;
19951;SDS011;10137;49.406;19.484;2023-12-20T01:09:03;3.23;;;2.33;;
19951;SDS011;10137;49.406;19.484;2023-12-20T01:11:30;4.20;;;2.70;;
19951;SDS011;10137;49.406;19.484;2023-12-20T01:13:57;4.63;;;2.73;;
19951;SDS011;10137;49.406;19.484;2023-12-20T01:16:24;3.63;;;2.57;;
19951;SDS011;10137;49.406;19.484;2023-12-20T01:18:52;3.67;;;2.57;;
19951;SDS011;10137;49.406;19.484;2023-12-20T01:21:19;5.03;;;2.53;;
19951;SDS011;10137;49.406;19.484;2023-12-20T01:23:46;3.63;;;2.63;;
19951;SDS011;10137;49.406;19.484;2023-12-20T01:26:12;4.30;;;2.80;;
19951;SDS011;10137;49.406;19.484;2023-12-20T01:28:41;4.77;;;2.93;;
19951;SDS011;10137;49.406;19.484;2023-12-20T01:31:08;4.30;;;2.87;;
19951;SDS011;10137;49.406;19.484;2023-12-20T01:33:35;4.30;;;3.17;;
19951;SDS011;10137;49.406;19.484;2023-12-20T01:36:05;4.60;;;3.20;;
19951;SDS011;10137;49.406;19.484;2023-12-20T01:38:32;4.93;;;3.40;;
19951;SDS011;10137;49.406;19.484;2023-12-20T01:40:59;4.70;;;2.93;;
19951;SDS011;10137;49.406;19.484;2023-12-20T01:43:26;5.10;;;3.80;;
19951;SDS011;10137;49.406;19.484;2023-12-20T01:45:53;5.60;;;4.27;;
19951;SDS011;10137;49.406;19.484;2023-12-20T01:48:22;4.27;;;2.87;;
19951;SDS011;10137;49.406;19.484;2023-12-20T01:50:50;4.47;;;2.70;;
19951;SDS011;10137;49.406;19.484;2023-12-20T01:53:20;4.53;;;2.93;;
19951;SDS011;10137;49.406;19.484;2023-12-20T01:55:50;4.87;;;2.97;;
19951;SDS011;10137;49.406;19.484;2023-12-20T01:58:19;4.23;;;2.63;;
19951;SDS011;10137;49.406;19.484;2023-12-20T02:00:46;6.63;;;3.90;;
19951;SDS011;10137;49.406;19.484;2023-12-20T02:03:14;3.93;;;2.60;;
19951;SDS011;10137;49.406;19.484;2023-12-20T02:05:41;6.63;;;2.63;;
19951;SDS011;10137;49.406;19.484;2023-12-20T02:08:10;4.60;;;2.97;;
19951;SDS011;10137;49.406;19.484;2023-12-20T02:10:38;5.70;;;3.20;;
19951;SDS011;10137;49.406;19.484;2023-12-20T02:13:06;5.77;;;3.20;;
19951;SDS011;10137;49.406;19.484;2023-12-20T02:15:32;5.33;;;3.27;;
19951;SDS011;10137;49.406;19.484;2023-12-20T02:18:01;5.33;;;3.37;;
19951;SDS011;10137;49.406;19.484;2023-12-20T02:20:29;4.50;;;2.83;;
19951;SDS011;10137;49.406;19.484;2023-12-20T02:22:58;5.83;;;3.43;;
19951;SDS011;10137;49.406;19.484;2023-12-20T02:25:24;5.07;;;2.97;;
19951;SDS011;10137;49.406;19.484;2023-12-20T02:27:51;4.83;;;3.00;;
19951;SDS011;10137;49.406;19.484;2023-12-20T02:30:18;3.93;;;2.70;;
19951;SDS011;10137;49.406;19.484;2023-12-20T02:32:45;4.57;;;3.00;;
19951;SDS011;10137;49.406;19.484;2023-12-20T02:35:12;4.40;;;2.90;;
19951;SDS011;10137;49.406;19.484;2023-12-20T02:37:39;4.47;;;3.10;;
19951;SDS011;10137;49.406;19.484;2023-12-20T02:40:08;4.10;;;2.83;;
19951;SDS011;10137;49.406;19.484;2023-12-20T02:42:35;4.30;;;2.67;;
19951;SDS011;10137;49.406;19.484;2023-12-20T02:45:02;4.17;;;2.80;;
19951;SDS011;10137;49.406;19.484;2023-12-20T02:47:29;3.93;;;2.87;;
19951;SDS011;10137;49.406;19.484;2023-12-20T02:49:56;6.90;;;4.87;;
19951;SDS011;10137;49.406;19.484;2023-12-20T02:52:23;5.80;;;3.23;;
19951;SDS011;10137;49.406;19.484;2023-12-20T02:54:50;4.60;;;2.90;;
19951;SDS011;10137;49.406;19.484;2023-12-20T02:57:19;3.43;;;2.43;;
19951;SDS011;10137;49.406;19.484;2023-12-20T02:59:45;5.60;;;3.10;;
19951;SDS011;10137;49.406;19.484;2023-12-20T03:02:12;5.43;;;2.67;;
19951;SDS011;10137;49.406;19.484;2023-12-20T03:04:39;4.03;;;2.77;;
19951;SDS011;10137;49.406;19.484;2023-12-20T03:07:06;4.47;;;2.90;;
19951;SDS011;10137;49.406;19.484;2023-12-20T03:09:33;4.33;;;3.20;;
19951;SDS011;10137;49.406;19.484;2023-12-20T03:12:00;4.63;;;2.80;;
19951;SDS011;10137;49.406;19.484;2023-12-20T03:14:28;4.67;;;2.80;;
19951;SDS011;10137;49.406;19.484;2023-12-20T03:16:55;4.80;;;2.80;;
19951;SDS011;10137;49.406;19.484;2023-12-20T03:19:21;4.00;;;2.70;;
19951;SDS011;10137;49.406;19.484;2023-12-20T03:21:48;5.13;;;3.13;;
19951;SDS011;10137;49.406;19.484;2023-12-20T03:24:15;5.33;;;2.83;;
19951;SDS011;10137;49.406;19.484;2023-12-20T03:26:42;5.30;;;3.40;;
19951;SDS011;10137;49.406;19.484;2023-12-20T03:29:09;5.70;;;3.17;;
19951;SDS011;10137;49.406;19.484;2023-12-20T03:31:37;4.17;;;2.53;;
19951;SDS011;10137;49.406;19.484;2023-12-20T03:34:04;8.10;;;4.10;;
19951;SDS011;10137;49.406;19.484;2023-12-20T03:36:30;8.70;;;6.13;;
19951;SDS011;10137;49.406;19.484;2023-12-20T03:38:57;9.03;;;7.40;;
19951;SDS011;10137;49.406;19.484;2023-12-20T03:41:24;6.07;;;3.40;;
19951;SDS011;10137;49.406;19.484;2023-12-20T03:43:51;5.80;;;2.90;;
19951;SDS011;10137;49.406;19.484;2023-12-20T03:46:18;5.93;;;3.40;;
19951;SDS011;10137;49.406;19.484;2023-12-20T03:48:46;4.90;;;3.00;;
19951;SDS011;10137;49.406;19.484;2023-12-20T03:51:13;4.70;;;2.80;;
19951;SDS011;10137;49.406;19.484;2023-12-20T03:53:42;7.40;;;2.90;;
19951;SDS011;10137;49.406;19.484;2023-12-20T03:56:09;4.80;;;2.97;;
19951;SDS011;10137;49.406;19.484;2023-12-20T03:58:36;5.13;;;3.30;;
19951;SDS011;10137;49.406;19.484;2023-12-20T04:01:03;5.77;;;3.30;;
19951;SDS011;10137;49.406;19.484;2023-12-20T04:03:35;5.03;;;2.90;;
19951;SDS011;10137;49.406;19.484;2023-12-20T04:06:03;7.00;;;4.43;;
19951;SDS011;10137;49.406;19.484;2023-12-20T04:08:30;7.67;;;3.00;;
19951;SDS011;10137;49.406;19.484;2023-12-20T04:10:57;5.47;;;3.10;;
19951;SDS011;10137;49.406;19.484;2023-12-20T04:13:24;6.10;;;3.13;;
19951;SDS011;10137;49.406;19.484;2023-12-20T04:15:50;6.27;;;3.40;;
19951;SDS011;10137;49.406;19.484;2023-12-20T04:18:17;7.63;;;3.80;;
19951;SDS011;10137;49.406;19.484;2023-12-20T04:20:44;6.50;;;3.53;;
19951;SDS011;10137;49.406;19.484;2023-12-20T04:23:12;5.60;;;3.10;;
19951;SDS011;10137;49.406;19.484;2023-12-20T04:25:39;4.33;;;3.00;;
19951;SDS011;10137;49.406;19.484;2023-12-20T04:28:06;6.67;;;2.90;;
19951;SDS011;10137;49.406;19.484;2023-12-20T04:30:33;7.30;;;3.40;;
19951;SDS011;10137;49.406;19.484;2023-12-20T04:33:00;8.97;;;4.30;;
19951;SDS011;10137;49.406;19.484;2023-12-20T04:35:27;10.37;;;4.80;;
19951;SDS011;10137;49.406;19.484;2023-12-20T04:37:54;6.90;;;4.00;;
19951;SDS011;10137;49.406;19.484;2023-12-20T04:40:22;9.23;;;4.57;;
19951;SDS011;10137;49.406;19.484;2023-12-20T04:42:49;10.53;;;7.40;;
19951;SDS011;10137;49.406;19.484;2023-12-20T04:45:16;14.50;;;9.13;;
19951;SDS011;10137;49.406;19.484;2023-12-20T04:47:44;14.73;;;7.77;;
19951;SDS011;10137;49.406;19.484;2023-12-20T04:50:12;36.90;;;13.80;;
19951;SDS011;10137;49.406;19.484;2023-12-20T04:52:39;26.70;;;11.37;;
19951;SDS011;10137;49.406;19.484;2023-12-20T04:55:06;18.47;;;6.90;;
19951;SDS011;10137;49.406;19.484;2023-12-20T04:57:35;7.00;;;3.43;;
19951;SDS011;10137;49.406;19.484;2023-12-20T05:00:02;11.47;;;4.83;;
19951;SDS011;10137;49.406;19.484;2023-12-20T05:02:29;4.50;;;3.20;;
19951;SDS011;10137;49.406;19.484;2023-12-20T05:04:56;9.27;;;4.07;;
19951;SDS011;10137;49.406;19.484;2023-12-20T05:07:23;11.50;;;4.63;;
19951;SDS011;10137;49.406;19.484;2023-12-20T05:09:50;8.53;;;4.53;;
19951;SDS011;10137;49.406;19.484;2023-12-20T05:12:17;7.40;;;4.47;;
19951;SDS011;10137;49.406;19.484;2023-12-20T05:14:45;7.07;;;4.53;;
19951;SDS011;10137;49.406;19.484;2023-12-20T05:17:12;6.77;;;4.13;;
19951;SDS011;10137;49.406;19.484;2023-12-20T05:19:39;17.00;;;10.70;;
19951;SDS011;10137;49.406;19.484;2023-12-20T05:22:06;23.20;;;13.67;;
19951;SDS011;10137;49.406;19.484;2023-12-20T05:24:33;12.93;;;6.97;;
19951;SDS011;10137;49.406;19.484;2023-12-20T05:26:59;15.20;;;7.77;;
19951;SDS011;10137;49.406;19.484;2023-12-20T05:29:26;14.43;;;7.17;;
19951;SDS011;10137;49.406;19.484;2023-12-20T05:31:54;21.13;;;6.47;;
19951;SDS011;10137;49.406;19.484;2023-12-20T05:34:21;13.17;;;5.50;;
19951;SDS011;10137;49.406;19.484;2023-12-20T05:36:48;13.30;;;5.07;;
19951;SDS011;10137;49.406;19.484;2023-12-20T05:39:15;9.30;;;3.90;;
19951;SDS011;10137;49.406;19.484;2023-12-20T05:41:42;6.00;;;3.30;;
19951;SDS011;10137;49.406;19.484;2023-12-20T05:44:09;8.70;;;3.23;;
19951;SDS011;10137;49.406;19.484;2023-12-20T05:46:36;9.13;;;3.90;;
19951;SDS011;10137;49.406;19.484;2023-12-20T05:49:04;32.37;;;4.33;;
19951;SDS011;10137;49.406;19.484;2023-12-20T05:51:31;14.83;;;3.53;;
19951;SDS011;10137;49.406;19.484;2023-12-20T05:53:57;6.47;;;3.07;;
19951;SDS011;10137;49.406;19.484;2023-12-20T05:56:24;4.20;;;2.53;;
19951;SDS011;10137;49.406;19.484;2023-12-20T05:58:51;8.53;;;3.00;;
19951;SDS011;10137;49.406;19.484;2023-12-20T06:01:18;8.23;;;3.63;;
19951;SDS011;10137;49.406;19.484;2023-12-20T06:03:45;7.33;;;3.57;;
19951;SDS011;10137;49.406;19.484;2023-12-20T06:06:13;7.67;;;3.47;;
19951;SDS011;10137;49.406;19.484;2023-12-20T06:08:40;7.33;;;3.17;;
19951;SDS011;10137;49.406;19.484;2023-12-20T06:11:08;6.10;;;2.77;;
19951;SDS011;10137;49.406;19.484;2023-12-20T06:13:35;4.77;;;3.17;;
19951;SDS011;10137;49.406;19.484;2023-12-20T06:16:02;6.40;;;3.43;;
19951;SDS011;10137;49.406;19.484;2023-12-20T06:18:31;10.30;;;5.17;;
19951;SDS011;10137;49.406;19.484;2023-12-20T06:20:58;7.23;;;3.07;;
19951;SDS011;10137;49.406;19.484;2023-12-20T06:23:26;6.27;;;3.00;;
19951;SDS011;10137;49.406;19.484;2023-12-20T06:25:53;4.67;;;2.83;;
19951;SDS011;10137;49.406;19.484;2023-12-20T06:28:20;4.37;;;2.90;;
19951;SDS011;10137;49.406;19.484;2023-12-20T06:30:46;5.97;;;3.10;;
19951;SDS011;10137;49.406;19.484;2023-12-20T06:33:14;4.53;;;3.43;;
19951;SDS011;10137;49.406;19.484;2023-12-20T06:35:41;9.20;;;5.93;;
19951;SDS011;10137;49.406;19.484;2023-12-20T06:38:08;13.70;;;7.80;;
19951;SDS011;10137;49.406;19.484;2023-12-20T06:40:37;11.87;;;5.93;;
19951;SDS011;10137;49.406;19.484;2023-12-20T06:43:03;7.63;;;3.90;;
19951;SDS011;10137;49.406;19.484;2023-12-20T06:45:34;5.20;;;3.23;;
19951;SDS011;10137;49.406;19.484;2023-12-20T06:48:01;7.80;;;3.37;;
19951;SDS011;10137;49.406;19.484;2023-12-20T06:50:28;5.60;;;3.40;;
19951;SDS011;10137;49.406;19.484;2023-12-20T06:52:55;7.20;;;4.00;;
19951;SDS011;10137;49.406;19.484;2023-12-20T06:55:22;5.83;;;3.70;;
19951;SDS011;10137;49.406;19.484;2023-12-20T06:57:50;6.50;;;3.70;;
19951;SDS011;10137;49.406;19.484;2023-12-20T07:00:17;4.83;;;3.23;;
19951;SDS011;10137;49.406;19.484;2023-12-20T07:02:45;5.07;;;3.13;;
19951;SDS011;10137;49.406;19.484;2023-12-20T07:05:12;5.50;;;3.40;;
19951;SDS011;10137;49.406;19.484;2023-12-20T07:07:44;7.73;;;4.77;;
19951;SDS011;10137;49.406;19.484;2023-12-20T07:10:11;8.07;;;4.67;;
19951;SDS011;10137;49.406;19.484;2023-12-20T07:12:38;8.67;;;5.23;;
19951;SDS011;10137;49.406;19.484;2023-12-20T07:15:07;8.30;;;4.57;;
19951;SDS011;10137;49.406;19.484;2023-12-20T07:17:34;12.57;;;4.80;;
19951;SDS011;10137;49.406;19.484;2023-12-20T07:20:01;9.07;;;4.67;;
19951;SDS011;10137;49.406;19.484;2023-12-20T07:22:29;7.93;;;4.73;;
19951;SDS011;10137;49.406;19.484;2023-12-20T07:24:56;8.97;;;4.47;;
19951;SDS011;10137;49.406;19.484;2023-12-20T07:27:23;7.53;;;4.37;;
19951;SDS011;10137;49.406;19.484;2023-12-20T07:29:50;6.60;;;4.60;;
19951;SDS011;10137;49.406;19.484;2023-12-20T07:32:19;7.10;;;4.87;;
19951;SDS011;10137;49.406;19.484;2023-12-20T07:34:46;6.40;;;4.37;;
19951;SDS011;10137;49.406;19.484;2023-12-20T07:37:12;7.47;;;4.40;;
19951;SDS011;10137;49.406;19.484;2023-12-20T07:39:39;7.20;;;4.23;;
19951;SDS011;10137;49.406;19.484;2023-12-20T07:42:07;8.10;;;4.57;;
19951;SDS011;10137;49.406;19.484;2023-12-20T07:44:34;8.03;;;6.00;;
19951;SDS011;10137;49.406;19.484;2023-12-20T07:47:01;11.67;;;7.10;;
19951;SDS011;10137;49.406;19.484;2023-12-20T07:49:30;10.87;;;6.13;;
19951;SDS011;10137;49.406;19.484;2023-12-20T07:51:57;11.07;;;6.47;;
19951;SDS011;10137;49.406;19.484;2023-12-20T07:54:24;10.77;;;6.63;;
19951;SDS011;10137;49.406;19.484;2023-12-20T07:56:51;9.27;;;4.93;;
19951;SDS011;10137;49.406;19.484;2023-12-20T07:59:18;6.77;;;4.73;;
19951;SDS011;10137;49.406;19.484;2023-12-20T08:01:45;8.73;;;5.07;;
19951;SDS011;10137;49.406;19.484;2023-12-20T08:04:11;7.53;;;4.87;;
19951;SDS011;10137;49.406;19.484;2023-12-20T08:06:40;7.33;;;4.33;;
19951;SDS011;10137;49.406;19.484;2023-12-20T08:09:06;6.70;;;4.30;;
19951;SDS011;10137;49.406;19.484;2023-12-20T08:11:33;7.17;;;4.37;;
19951;SDS011;10137;49.406;19.484;2023-12-20T08:14:00;8.10;;;4.53;;
19951;SDS011;10137;49.406;19.484;2023-12-20T08:16:27;7.17;;;4.07;;
19951;SDS011;10137;49.406;19.484;2023-12-20T08:18:54;6.77;;;4.23;;
19951;SDS011;10137;49.406;19.484;2023-12-20T08:21:21;6.57;;;4.37;;
19951;SDS011;10137;49.406;19.484;2023-12-20T08:23:49;5.30;;;3.67;;
19951;SDS011;10137;49.406;19.484;2023-12-20T08:26:18;7.00;;;4.03;;
19951;SDS011;10137;49.406;19.484;2023-12-20T08:28:47;6.73;;;3.90;;
19951;SDS011;10137;49.406;19.484;2023-12-20T08:31:14;6.87;;;4.30;;
19951;SDS011;10137;49.406;19.484;2023-12-20T08:33:43;5.97;;;4.10;;
19951;SDS011;10137;49.406;19.484;2023-12-20T08:36:10;6.20;;;4.23;;
19951;SDS011;10137;49.406;19.484;2023-12-20T08:38:37;6.47;;;3.93;;
19951;SDS011;10137;49.406;19.484;2023-12-20T08:41:06;5.73;;;3.70;;
19951;SDS011;10137;49.406;19.484;2023-12-20T08:43:33;6.67;;;4.20;;
19951;SDS011;10137;49.406;19.484;2023-12-20T08:46:01;9.53;;;4.40;;
19951;SDS011;10137;49.406;19.484;2023-12-20T08:48:28;6.27;;;4.03;;
19951;SDS011;10137;49.406;19.484;2023-12-20T08:50:55;5.13;;;3.27;;
19951;SDS011;10137;49.406;19.484;2023-12-20T08:53:21;7.33;;;4.00;;
19951;SDS011;10137;49.406;19.484;2023-12-20T08:55:48;6.63;;;4.10;;
19951;SDS011;10137;49.406;19.484;2023-12-20T08:58:17;5.40;;;3.73;;
19951;SDS011;10137;49.406;19.484;2023-12-20T09:00:44;5.83;;;3.93;;
19951;SDS011;10137;49.406;19.484;2023-12-20T09:03:11;10.60;;;3.90;;
19951;SDS011;10137;49.406;19.484;2023-12-20T09:05:38;8.93;;;4.17;;
19951;SDS011;10137;49.406;19.484;2023-12-20T09:08:05;6.27;;;4.10;;
19951;SDS011;10137;49.406;19.484;2023-12-20T09:10:35;6.60;;;4.20;;
19951;SDS011;10137;49.406;19.484;2023-12-20T09:13:01;13.03;;;4.93;;
19951;SDS011;10137;49.406;19.484;2023-12-20T09:15:30;7.90;;;4.77;;
19951;SDS011;10137;49.406;19.484;2023-12-20T09:17:59;6.90;;;4.40;;
19951;SDS011;10137;49.406;19.484;2023-12-20T09:20:27;6.37;;;4.77;;
19951;SDS011;10137;49.406;19.484;2023-12-20T09:22:54;9.40;;;4.40;;
19951;SDS011;10137;49.406;19.484;2023-12-20T09:25:21;7.30;;;4.67;;
19951;SDS011;10137;49.406;19.484;2023-12-20T09:27:48;10.53;;;6.43;;
19951;SDS011;10137;49.406;19.484;2023-12-20T09:30:15;11.13;;;6.07;;
19951;SDS011;10137;49.406;19.484;2023-12-20T09:32:43;10.40;;;5.53;;
19951;SDS011;10137;49.406;19.484;2023-12-20T09:35:11;12.90;;;5.90;;
19951;SDS011;10137;49.406;19.484;2023-12-20T09:37:38;9.93;;;6.03;;
19951;SDS011;10137;49.406;19.484;2023-12-20T09:40:06;9.77;;;5.60;;
19951;SDS011;10137;49.406;19.484;2023-12-20T09:42:37;10.20;;;5.13;;
19951;SDS011;10137;49.406;19.484;2023-12-20T09:45:09;10.70;;;5.63;;
19951;SDS011;10137;49.406;19.484;2023-12-20T09:47:40;9.50;;;6.10;;
19951;SDS011;10137;49.406;19.484;2023-12-20T09:50:10;7.33;;;5.33;;
19951;SDS011;10137;49.406;19.484;2023-12-20T09:52:38;10.80;;;7.40;;
19951;SDS011;10137;49.406;19.484;2023-12-20T09:55:06;11.13;;;7.80;;
19951;SDS011;10137;49.406;19.484;2023-12-20T09:57:34;12.70;;;8.27;;
19951;SDS011;10137;49.406;19.484;2023-12-20T10:00:01;7.93;;;5.20;;
19951;SDS011;10137;49.406;19.484;2023-12-20T10:02:29;6.70;;;5.27;;
19951;SDS011;10137;49.406;19.484;2023-12-20T10:04:58;5.90;;;4.23;;
19951;SDS011;10137;49.406;19.484;2023-12-20T10:07:26;6.40;;;4.00;;
19951;SDS011;10137;49.406;19.484;2023-12-20T10:09:54;6.60;;;4.80;;
19951;SDS011;10137;49.406;19.484;2023-12-20T10:12:21;6.80;;;4.17;;
19951;SDS011;10137;49.406;19.484;2023-12-20T10:14:48;6.37;;;4.53;;
19951;SDS011;10137;49.406;19.484;2023-12-20T10:17:17;7.20;;;4.83;;
19951;SDS011;10137;49.406;19.484;2023-12-20T10:19:44;7.10;;;4.73;;
19951;SDS011;10137;49.406;19.484;2023-12-20T10:22:12;9.63;;;5.40;;
19951;SDS011;10137;49.406;19.484;2023-12-20T10:24:39;9.20;;;6.10;;
19951;SDS011;10137;49.406;19.484;2023-12-20T10:27:07;7.63;;;5.10;;
19951;SDS011;10137;49.406;19.484;2023-12-20T10:34:48;7.77;;;5.80;;
19951;SDS011;10137;49.406;19.484;2023-12-20T10:37:16;7.90;;;6.27;;
19951;SDS011;10137;49.406;19.484;2023-12-20T10:39:44;7.87;;;4.80;;
19951;SDS011;10137;49.406;19.484;2023-12-20T10:42:16;6.87;;;4.17;;
19951;SDS011;10137;49.406;19.484;2023-12-20T10:44:43;7.70;;;4.90;;
19951;SDS011;10137;49.406;19.484;2023-12-20T10:47:10;6.13;;;4.47;;
19951;SDS011;10137;49.406;19.484;2023-12-20T10:49:39;6.07;;;4.07;;
19951;SDS011;10137;49.406;19.484;2023-12-20T10:52:07;10.00;;;5.50;;
19951;SDS011;10137;49.406;19.484;2023-12-20T10:54:41;9.17;;;5.53;;
19951;SDS011;10137;49.406;19.484;2023-12-20T10:57:08;6.77;;;4.33;;
19951;SDS011;10137;49.406;19.484;2023-12-20T10:59:36;9.63;;;4.93;;
19951;SDS011;10137;49.406;19.484;2023-12-20T11:02:04;21.43;;;10.80;;
19951;SDS011;10137;49.406;19.484;2023-12-20T11:04:34;7.57;;;5.00;;
19951;SDS011;10137;49.406;19.484;2023-12-20T11:07:06;6.47;;;3.80;;
19951;SDS011;10137;49.406;19.484;2023-12-20T11:09:43;10.47;;;5.90;;
19951;SDS011;10137;49.406;19.484;2023-12-20T11:12:16;9.40;;;6.53;;
19951;SDS011;10137;49.406;19.484;2023-12-20T11:14:50;6.53;;;4.00;;
19951;SDS011;10137;49.406;19.484;2023-12-20T11:17:19;5.57;;;4.13;;
19951;SDS011;10137;49.406;19.484;2023-12-20T11:20:04;8.60;;;3.70;;
19951;SDS011;10137;49.406;19.484;2023-12-20T11:22:37;6.53;;;4.27;;
19951;SDS011;10137;49.406;19.484;2023-12-20T11:25:08;6.47;;;4.03;;
19951;SDS011;10137;49.406;19.484;2023-12-20T11:27:40;5.43;;;3.73;;
19951;SDS011;10137;49.406;19.484;2023-12-20T11:30:08;5.07;;;3.60;;
19951;SDS011;10137;49.406;19.484;2023-12-20T11:32:35;5.03;;;3.60;;
19951;SDS011;10137;49.406;19.484;2023-12-20T11:35:16;5.53;;;4.17;;
19951;SDS011;10137;49.406;19.484;2023-12-20T11:37:44;8.33;;;5.20;;
19951;SDS011;10137;49.406;19.484;2023-12-20T11:40:14;6.40;;;4.33;;
19951;SDS011;10137;49.406;19.484;2023-12-20T11:42:43;6.37;;;3.70;;
19951;SDS011;10137;49.406;19.484;2023-12-20T11:45:11;5.03;;;3.40;;
19951;SDS011;10137;49.406;19.484;2023-12-20T11:47:41;5.57;;;3.67;;
19951;SDS011;10137;49.406;19.484;2023-12-20T11:50:09;5.80;;;3.83;;
19951;SDS011;10137;49.406;19.484;2023-12-20T11:52:35;5.20;;;3.40;;
19951;SDS011;10137;49.406;19.484;2023-12-20T11:55:02;4.77;;;3.33;;
19951;SDS011;10137;49.406;19.484;2023-12-20T11:57:31;4.53;;;3.63;;
19951;SDS011;10137;49.406;19.484;2023-12-20T11:59:58;5.80;;;3.90;;
19951;SDS011;10137;49.406;19.484;2023-12-20T12:02:25;6.53;;;3.50;;
19951;SDS011;10137;49.406;19.484;2023-12-20T12:04:52;5.40;;;3.60;;
19951;SDS011;10137;49.406;19.484;2023-12-20T12:07:20;6.87;;;3.07;;
19951;SDS011;10137;49.406;19.484;2023-12-20T12:09:47;5.87;;;3.60;;
19951;SDS011;10137;49.406;19.484;2023-12-20T12:12:14;10.67;;;4.57;;
19951;SDS011;10137;49.406;19.484;2023-12-20T12:14:43;4.90;;;3.40;;
19951;SDS011;10137;49.406;19.484;2023-12-20T12:17:10;5.43;;;3.00;;
19951;SDS011;10137;49.406;19.484;2023-12-20T12:19:38;4.47;;;3.20;;
19951;SDS011;10137;49.406;19.484;2023-12-20T12:22:06;4.60;;;3.33;;
19951;SDS011;10137;49.406;19.484;2023-12-20T12:24:35;5.97;;;3.40;;
19951;SDS011;10137;49.406;19.484;2023-12-20T12:27:03;5.23;;;3.70;;
19951;SDS011;10137;49.406;19.484;2023-12-20T12:29:31;5.33;;;4.03;;
19951;SDS011;10137;49.406;19.484;2023-12-20T12:32:00;5.87;;;3.63;;
19951;SDS011;10137;49.406;19.484;2023-12-20T12:34:27;5.60;;;4.00;;
19951;SDS011;10137;49.406;19.484;2023-12-20T12:36:54;6.00;;;3.93;;
19951;SDS011;10137;49.406;19.484;2023-12-20T12:39:21;5.30;;;3.90;;
19951;SDS011;10137;49.406;19.484;2023-12-20T12:41:51;7.90;;;3.93;;
19951;SDS011;10137;49.406;19.484;2023-12-20T12:44:17;6.67;;;4.10;;
19951;SDS011;10137;49.406;19.484;2023-12-20T12:46:44;9.03;;;4.47;;
19951;SDS011;10137;49.406;19.484;2023-12-20T12:49:16;4.67;;;3.60;;
19951;SDS011;10137;49.406;19.484;2023-12-20T12:51:43;4.77;;;3.57;;
19951;SDS011;10137;49.406;19.484;2023-12-20T12:54:10;6.07;;;4.27;;
19951;SDS011;10137;49.406;19.484;2023-12-20T12:56:38;4.30;;;3.00;;
19951;SDS011;10137;49.406;19.484;2023-12-20T12:59:05;4.23;;;2.80;;
19951;SDS011;10137;49.406;19.484;2023-12-20T13:01:32;5.03;;;3.60;;
19951;SDS011;10137;49.406;19.484;2023-12-20T13:03:59;4.70;;;2.90;;
19951;SDS011;10137;49.406;19.484;2023-12-20T13:06:29;5.47;;;3.47;;
19951;SDS011;10137;49.406;19.484;2023-12-20T13:08:56;5.63;;;3.50;;
19951;SDS011;10137;49.406;19.484;2023-12-20T13:11:23;4.50;;;3.10;;
19951;SDS011;10137;49.406;19.484;2023-12-20T13:13:50;5.77;;;3.20;;
19951;SDS011;10137;49.406;19.484;2023-12-20T13:16:17;4.60;;;2.90;;
19951;SDS011;10137;49.406;19.484;2023-12-20T13:18:44;6.07;;;3.67;;
19951;SDS011;10137;49.406;19.484;2023-12-20T13:21:11;5.70;;;3.93;;
19951;SDS011;10137;49.406;19.484;2023-12-20T13:23:39;4.97;;;3.27;;
19951;SDS011;10137;49.406;19.484;2023-12-20T13:26:06;3.63;;;2.67;;
19951;SDS011;10137;49.406;19.484;2023-12-20T13:28:33;5.10;;;3.07;;
19951;SDS011;10137;49.406;19.484;2023-12-20T13:31:00;5.90;;;3.53;;
19951;SDS011;10137;49.406;19.484;2023-12-20T13:33:28;5.57;;;3.67;;
19951;SDS011;10137;49.406;19.484;2023-12-20T13:35:54;6.60;;;3.77;;
19951;SDS011;10137;49.406;19.484;2023-12-20T13:38:23;6.93;;;3.73;;
19951;SDS011;10137;49.406;19.484;2023-12-20T13:40:51;5.47;;;2.80;;
19951;SDS011;10137;49.406;19.484;2023-12-20T13:43:18;2.93;;;2.40;;
19951;SDS011;10137;49.406;19.484;2023-12-20T13:45:46;3.93;;;2.70;;
19951;SDS011;10137;49.406;19.484;2023-12-20T13:48:13;4.50;;;2.90;;
19951;SDS011;10137;49.406;19.484;2023-12-20T13:50:40;4.67;;;3.40;;
19951;SDS011;10137;49.406;19.484;2023-12-20T13:53:07;5.10;;;3.73;;
19951;SDS011;10137;49.406;19.484;2023-12-20T13:55:34;4.27;;;3.10;;
19951;SDS011;10137;49.406;19.484;2023-12-20T13:58:02;4.93;;;3.67;;
19951;SDS011;10137;49.406;19.484;2023-12-20T14:00:29;5.93;;;4.13;;
19951;SDS011;10137;49.406;19.484;2023-12-20T14:02:56;6.13;;;4.03;;
19951;SDS011;10137;49.406;19.484;2023-12-20T14:05:23;7.10;;;4.53;;
19951;SDS011;10137;49.406;19.484;2023-12-20T14:07:52;7.90;;;4.67;;
19951;SDS011;10137;49.406;19.484;2023-12-20T14:10:19;8.00;;;5.00;;
19951;SDS011;10137;49.406;19.484;2023-12-20T14:12:48;25.83;;;11.80;;
19951;SDS011;10137;49.406;19.484;2023-12-20T14:15:16;25.43;;;10.50;;
19951;SDS011;10137;49.406;19.484;2023-12-20T14:17:43;18.57;;;8.43;;
19951;SDS011;10137;49.406;19.484;2023-12-20T14:20:10;12.80;;;6.40;;
19951;SDS011;10137;49.406;19.484;2023-12-20T14:22:38;8.77;;;5.30;;
19951;SDS011;10137;49.406;19.484;2023-12-20T14:25:10;7.10;;;4.67;;
19951;SDS011;10137;49.406;19.484;2023-12-20T14:27:38;8.57;;;5.53;;
19951;SDS011;10137;49.406;19.484;2023-12-20T14:30:06;8.23;;;4.83;;
19951;SDS011;10137;49.406;19.484;2023-12-20T14:32:37;6.90;;;3.77;;
19951;SDS011;10137;49.406;19.484;2023-12-20T14:35:04;5.00;;;3.67;;
19951;SDS011;10137;49.406;19.484;2023-12-20T14:37:34;5.87;;;4.07;;
19951;SDS011;10137;49.406;19.484;2023-12-20T14:40:04;5.67;;;4.23;;